Gaslog data for The Toaster

Go Back   Gas Savers - Fuel Efficiency Forum > Garage > The Toaster
Add Garage Entry Top Ten Entries Search the Garage


Welcome, non logged-in user
Your Garage


Gaslog data for The Toaster
Date Distance Fuel Used Cost of Fuel Notes MPG(US)
02/10/2013 358.6 12.386 3.579BP 87 E10, Carson, VA AVG 65 MPH28.95
02/10/2013 234 6.236 3.679Mobil 87 E0, Walterboro, SC AVG 62 MPH37.52
02/10/2013 268.6 9.461 4.089Gate 89 E0, St. Augustine, FL28.39
01/30/2013 202.8 7.384 4.199Mobil 89 E0, Palm Coast, FL. 27.46
01/26/2013 387.4 13.051 4.299Sunoco 87 E0, Kingsland, GA. AVG Speed 67 MPH29.68
01/26/2013 367.7 14.753 3.599Unbranded 87 E0, Byrd's Gas & Grocery, Benson, NC AVG Speed 52 MPH24.92
01/25/2013 279.3 10.341 3.459Liberty 87 E0, Winchester, VA AVG Speed 29 MPH27.00
12/05/2012 345.4 10.297 3.399Liberty 87 E0, Winchester, VA AVG Speed 26 MPH33.54
11/27/2012 471.2 14.291 3.399Liberty 87 E0, WInchester, VA AVG Speed 31 MPH32.97
11/16/2012 304 9.821 3.399Liberty 87 E0, Winchester, VA. AVG Speed 29 MPH30.95
11/02/2012 267.1 8.817 3.499Liberty 87 E0, Winchester, VA Average Speed 27 MPH30.29
10/22/2012 380.4 11.026 3.599Liberty 87 E0, Winchester, VA AVG Speed 28 MPH34.50
10/13/2012 292.9 9.428 3.75987 Octane E0, Winchester, VA AVG Speed 30 MPH31.06
10/06/2012 427.4 11.589 3.759Liberty 87 E0, Winchester, VA AVG speed 27 MPH36.87
09/22/2012 208.5 6.2 3.749Liberty 87 E0 Front Royal, VA AVG Speed 27 MPH33.62
09/13/2012 348.4 11.498 3.899Liberty 87 E0, Winchester, VA Avg Speed 27 MPH30.30
08/27/2012 123.2 3.187 3.699Liberty 87 E0, Winchester, VA Avg Speed 31 MPH38.65
08/24/2012 298.8 8.909 3.799Liberty 87 E0, Winchester, VA. AVG speed 28 MPH33.53
08/18/2012 194.7 6.288 3.659Liberty 87 E0, Winchester, VA AVG Speed 30 MPH30.96
08/10/2012 294.5 10.383 3.599Liberty 87 E0, Winchester, VA28.36
07/28/2012 371.4 12.741 3.499Liberty 87 E0, Winchester, VA29.14
07/18/2012 259.6 9.057 3.399Liberty 87 E0, Winchester, VA28.66
07/07/2012 139.8 5.561 3.399Liberty 87 E0, Winchester, VA. Previous tank was E10.25.13
07/02/2012 246.7 11.129 3.379Exxon 87 E10, Purcellville, VA. Average speed 12 MPH. Our power was out for almost 3 days, and I was using the FEH as a generator to power lights and a fan from the dashboard AC outlet.22.16
06/19/2012 272.5 8.711 3.399Liberty 87 E0, Winchester, VA AVG speed 3031.28
06/16/2012 407.1 11.147 3.679Liberty 87 E0, Charles Town, WV. AVG Speed 3436.52
06/10/2012 184.8 5.756 3.399Liberty 87 E0, Winchester, VA32.10
06/06/2012 257.8 6.973 3.399Liberty 87 E0, Winchester, VA AVG Speed 30 MPH36.97
05/31/2012 263.4 8.204 3.499Liberty 87 E0, Winchester, VA32.10
05/19/2012 371.5 10.284 3.599Liberty 87 E0, Winchester, VA36.12
05/09/2012 340 9.94 3.699Liberty 87 E0 Winchester, VA. AVG speed 32 mph34.20
05/03/2012 414.4 13.12 3.839Liberty 87 E0, Winchester, VA Avg Speed 2831.58
04/24/2012 138.1 4.007 4.2Unbranded 89 E0, York Springs, PA.34.46
04/21/2012 333.6 10.271 3.999Liberty 87 E0, Winchester, VA. Avg speed 23 MPH32.47
04/07/2012 415.1 13.172 4.099Liberty 87 E0, Winchester, VA AVG Speed 27. Michelin Latitude Tours installed.31.51
04/01/2012 251.7 7.375 4.099Liberty 87 E0. Avg speed 24 MPH. I had dropped the car off at the dealer for a/c and hybrid cooling system repairs on this tank.34.12
03/22/2012 395.7 12.528 3.899Liberty 87 E0, Winchester, VA AVG speed 24 MPH31.58
02/25/2012 278.7 10.523 3.799Liberty 87 E0, Winchester, VA. Average speed 22 MPH. 26.48
02/14/2012 288.7 10.238 3.679Exxon 87 E10, Sterling, VA. Valentine's day flower deliveries.28.19
02/11/2012 168 5.153 3.619Liberty 87 E0, Winchester, VA32.60
02/04/2012 395 12.567 3.579Shell 87 E10, Sterling, VA AVG Speed 25 MPH31.43
01/22/2012 280 8.975 3.459Liberty 87 E0, Winchester, VA Avg Speed 2431.19
01/15/2012 181.1 6.561 3.359Liberty 87 E0, Winchester, VA Replaced 12V battery, so fuel trim was reset. Also had some highway driving with cruise set on 70.27.60
01/12/2012 414.1 13.031 3.399Liberty 87 E0, Winchester, VA AVG speed 2531.77
12/29/2011 377.8 13.021 3.359Liberty 87 E0, Winchester VA. Avg Speed 24 MPH29.01
12/17/2011 298.4 10.416 3.299Liberty 87 E0, Winchester, VA AVG speed 2828.64
12/11/2011 381.9 12.037 3.299Liberty 87 E0, Winchester, VA31.72
12/03/2011 260 9.707 3.109Mobil 87 E10, Front Royal, VA. AVG speed 20 MPH26.78
11/24/2011 164.4 5.187 3.199Exxon 87 E10, Catlett, VA31.69
11/19/2011 404.4 14.197 3.189Sunoco 87 E10, Manassas, VA28.48
11/08/2011 137.7 3.344 3.279Raceway 87 E10, Manassas, VA. AVG Speed 26. Battery recalibration on this tank. Filled up because fuel gauge was reading 3/4 tank, and gas was much cheaper than in my town. I had no idea that it would only take 3 gallons.41.17
11/07/2011 377.8 11.98 3.419Getty 87 E10 (Sterling, VA) AVG Speed 3431.53
11/03/2011 336.2 11.833 3.249Valero 87 E10, Stafford, VA AVG Speed 18 MPH28.41
10/22/2011 247.7 7.935 3.499Shell 87 E10, Boyce, VA31.21


All times are GMT -6. The time now is 10:17 AM.


Copyright 2005-2008 GasSavers.Org